Time;durP1;ratioP1;P1;durP2;ratioP2;P2;SDS_P1;SDS_P2;PMS_P1;PMS_P2;Temp;Humidity;BMP_temperature;BMP_pressure;BME280_temperature;BME280_humidity;BME280_pressure;Samples;Min_cycle;Max_cycle;Signal;HPM_P1;HPM_P2
2022/09/16 00:01:28;;;;;;;1999.90;999.90;;;16.50;99.90;;;;;;5053325;28;20070;-78
2022/09/16 00:03:56;;;;;;;1999.90;999.90;;;16.50;99.90;;;;;;5055005;28;20064;-79
2022/09/16 00:06:26;;;;;;;1999.90;999.90;;;16.50;99.90;;;;;;5054889;28;20476;-78
2022/09/16 00:08:55;;;;;;;1999.90;999.90;;;16.50;99.90;;;;;;5054960;28;20029;-78
2022/09/16 00:11:21;;;;;;;1999.90;999.90;;;16.40;99.90;;;;;;5054275;28;20399;-78
2022/09/16 00:13:47;;;;;;;1999.90;999.90;;;16.40;99.90;;;;;;5040949;28;20032;-78
2022/09/16 00:16:19;;;;;;;1999.90;999.90;;;16.40;99.90;;;;;;5043214;28;20044;-78
2022/09/16 00:18:45;;;;;;;1999.90;999.90;;;16.30;99.90;;;;;;5054160;28;20100;-79
2022/09/16 00:21:10;;;;;;;1999.90;999.90;;;16.30;99.90;;;;;;5054571;28;20025;-78
2022/09/16 00:23:37;;;;;;;1999.90;999.90;;;16.30;99.90;;;;;;5054603;28;20078;-78
2022/09/16 00:26:03;;;;;;;1999.90;999.90;;;16.20;99.90;;;;;;5054630;28;20456;-78
2022/09/16 00:28:29;;;;;;;1999.90;999.90;;;16.20;99.90;;;;;;5054238;28;20025;-78
2022/09/16 00:30:59;;;;;;;1999.90;999.90;;;16.20;99.90;;;;;;5054113;28;20048;-78
2022/09/16 00:33:26;;;;;;;1999.90;999.90;;;16.20;99.90;;;;;;5054590;28;20079;-78
2022/09/16 00:35:51;;;;;;;1999.90;999.90;;;16.20;99.90;;;;;;5054307;28;20052;-78
2022/09/16 00:38:17;;;;;;;1999.90;999.90;;;16.20;99.90;;;;;;5054261;28;20055;-79
2022/09/16 00:40:48;;;;;;;1999.90;999.90;;;16.10;99.90;;;;;;5054415;28;20109;-79
2022/09/16 00:43:18;;;;;;;1999.90;999.90;;;16.10;99.90;;;;;;5054275;28;20104;-78
2022/09/16 00:45:49;;;;;;;1999.90;999.90;;;16.00;99.90;;;;;;5054038;28;20527;-72
2022/09/16 00:48:20;;;;;;;1999.90;999.90;;;16.00;99.90;;;;;;5054158;28;20021;-78
2022/09/16 00:50:55;;;;;;;1999.90;999.90;;;16.00;99.90;;;;;;5054146;28;20021;-78
2022/09/16 00:53:30;;;;;;;1999.90;999.90;;;15.90;99.90;;;;;;5054206;28;20537;-72
2022/09/16 00:55:57;;;;;;;1999.90;999.90;;;15.90;99.90;;;;;;5054076;28;20029;-79
2022/09/16 00:58:35;;;;;;;1999.90;999.90;;;15.90;99.90;;;;;;5053778;28;20032;-72
2022/09/16 01:01:04;;;;;;;1999.90;999.90;;;15.80;99.90;;;;;;5053719;28;21010;-78
2022/09/16 01:03:33;;;;;;;1999.90;999.90;;;15.90;99.90;;;;;;5054063;28;20024;-78
2022/09/16 01:05:59;;;;;;;1999.90;999.90;;;15.80;99.90;;;;;;5053937;28;20040;-79
2022/09/16 01:08:24;;;;;;;1999.90;999.90;;;15.80;99.90;;;;;;5053820;28;20039;-79
2022/09/16 01:10:50;;;;;;;1999.90;999.90;;;15.70;99.90;;;;;;5053598;28;20459;-71
2022/09/16 01:13:16;;;;;;;1999.90;999.90;;;15.70;99.90;;;;;;5044161;28;20104;-71
2022/09/16 01:15:58;;;;;;;1999.90;999.90;;;15.70;99.90;;;;;;5037673;28;20025;-78
2022/09/16 01:18:38;;;;;;;1999.90;999.90;;;15.70;99.90;;;;;;5053708;28;20017;-78
2022/09/16 01:21:37;;;;;;;1999.90;999.90;;;15.70;99.90;;;;;;5053413;28;20021;-78
2022/09/16 01:24:21;;;;;;;1999.90;999.90;;;15.70;99.90;;;;;;5053282;28;20040;-72
2022/09/16 01:27:03;;;;;;;1999.90;999.90;;;15.70;99.90;;;;;;5051959;28;20032;-79
2022/09/16 01:29:29;;;;;;;1999.90;999.90;;;15.60;99.90;;;;;;5053493;28;20045;-78
2022/09/16 01:32:08;;;;;;;1999.90;999.90;;;15.70;99.90;;;;;;5053209;28;20036;-79
2022/09/16 01:35:07;;;;;;;1999.90;999.90;;;15.60;99.90;;;;;;5053097;28;20033;-72
2022/09/16 01:38:02;;;;;;;1999.90;999.90;;;15.60;99.90;;;;;;5052798;28;20010;-72
2022/09/16 01:40:42;;;;;;;1999.90;999.90;;;15.60;99.90;;;;;;5033273;28;20080;-78
2022/09/16 01:43:31;;;;;;;1999.90;999.90;;;15.50;99.90;;;;;;5033217;28;20026;-78
2022/09/16 01:46:11;;;;;;;1999.90;999.90;;;15.50;99.90;;;;;;5031618;28;20065;-79
2022/09/16 01:48:40;;;;;;;1999.90;999.90;;;15.40;99.90;;;;;;5033189;28;20029;-79
2022/09/16 01:51:27;;;;;;;1999.90;999.90;;;15.40;99.90;;;;;;5032896;28;20415;-78
2022/09/16 01:54:08;;;;;;;1999.90;999.90;;;15.40;99.90;;;;;;5033282;28;20032;-78
2022/09/16 01:56:45;;;;;;;1999.90;999.90;;;15.40;99.90;;;;;;5032771;28;20072;-78
2022/09/16 01:59:43;;;;;;;1999.90;999.90;;;15.40;99.90;;;;;;5033041;28;20428;-78
2022/09/16 02:02:38;;;;;;;1999.90;999.90;;;15.40;99.90;;;;;;5033581;28;20060;-78
2022/09/16 02:05:13;;;;;;;1999.90;999.90;;;15.30;99.90;;;;;;5033646;28;20051;-72
2022/09/16 02:07:43;;;;;;;1999.90;999.90;;;15.30;99.90;;;;;;5033046;28;20076;-79
2022/09/16 02:10:16;;;;;;;1999.90;999.90;;;15.30;99.90;;;;;;5032587;28;20025;-78
2022/09/16 02:12:45;;;;;;;1999.90;999.90;;;15.20;99.90;;;;;;5031714;28;20485;-79
2022/09/16 02:15:20;;;;;;;1999.90;999.90;;;15.10;99.90;;;;;;5033007;28;20022;-71
2022/09/16 02:18:01;;;;;;;1999.90;999.90;;;15.10;99.90;;;;;;5052558;28;20066;-72
2022/09/16 02:20:30;;;;;;;1999.90;999.90;;;15.10;99.90;;;;;;5052181;28;20496;-79
2022/09/16 02:23:08;;;;;;;1999.90;999.90;;;15.10;99.90;;;;;;5051535;28;20021;-72
2022/09/16 02:25:37;;;;;;;1999.90;999.90;;;15.10;99.90;;;;;;5052671;28;20372;-79
2022/09/16 02:28:07;;;;;;;1999.90;999.90;;;15.10;99.90;;;;;;5052406;28;20025;-71
2022/09/16 02:30:34;;;;;;;1999.90;999.90;;;15.10;99.90;;;;;;5052268;28;20109;-72
2022/09/16 02:33:06;;;;;;;1999.90;999.90;;;15.10;99.90;;;;;;5051973;28;20040;-72
2022/09/16 02:35:35;;;;;;;1999.90;999.90;;;15.00;99.90;;;;;;5052347;28;20028;-78
2022/09/16 02:38:08;;;;;;;1999.90;999.90;;;15.00;99.90;;;;;;5052136;28;20098;-79
2022/09/16 02:40:41;;;;;;;1999.90;999.90;;;14.90;99.90;;;;;;5050869;28;20111;-78
2022/09/16 02:43:06;;;;;;;1999.90;999.90;;;14.90;99.90;;;;;;5052257;28;20049;-77
2022/09/16 02:46:07;;;;;;;1999.90;999.90;;;14.90;99.90;;;;;;5051903;28;20057;-72
2022/09/16 02:48:44;;;;;;;1999.90;999.90;;;14.90;99.90;;;;;;5049863;28;20048;-79
2022/09/16 02:51:32;;;;;;;1999.90;999.90;;;14.80;99.90;;;;;;5045432;28;20021;-78
2022/09/16 02:54:07;;;;;;;1999.90;999.90;;;14.80;99.90;;;;;;5032211;28;20034;-79
2022/09/16 02:56:36;;;;;;;1999.90;999.90;;;14.70;99.90;;;;;;5032075;28;20072;-77
2022/09/16 02:59:04;;;;;;;1999.90;999.90;;;14.70;99.90;;;;;;5031556;28;20127;-72
2022/09/16 03:01:32;;;;;;;1999.90;999.90;;;14.70;99.90;;;;;;5031997;28;20447;-78
2022/09/16 03:03:58;;;;;;;1999.90;999.90;;;14.70;99.90;;;;;;5032183;28;20052;-78
2022/09/16 03:06:26;;;;;;;1999.90;999.90;;;14.60;99.90;;;;;;5047290;28;20033;-78
2022/09/16 03:08:54;;;;;;;1999.90;999.90;;;14.70;99.90;;;;;;5031516;28;20025;-71
2022/09/16 03:12:17;;;;;;;1999.90;999.90;;;14.70;99.90;;;;;;5031314;28;20101;-78
2022/09/16 03:15:28;;;;;;;1999.90;999.90;;;14.70;99.90;;;;;;5048732;28;20499;-78
2022/09/16 03:18:27;;;;;;;1999.90;999.90;;;14.60;99.90;;;;;;5009637;28;20026;-78
2022/09/16 03:21:23;;;;;;;1999.90;999.90;;;14.50;99.90;;;;;;4990134;28;20041;-71
2022/09/16 03:23:57;;;;;;;1999.90;999.90;;;14.50;99.90;;;;;;4988311;28;20045;-71
2022/09/16 03:26:26;;;;;;;1999.90;999.90;;;14.50;99.90;;;;;;4990401;28;20034;-78
2022/09/16 03:29:38;;;;;;;1999.90;999.90;;;14.50;99.90;;;;;;4989903;28;20054;-71
2022/09/16 03:32:22;;;;;;;1999.90;999.90;;;14.50;99.90;;;;;;4990168;28;20042;-71
2022/09/16 03:35:01;;;;;;;1999.90;999.90;;;14.50;99.90;;;;;;4991140;28;20060;-78
2022/09/16 03:37:30;;;;;;;1999.90;999.90;;;14.50;99.90;;;;;;4994121;28;20493;-78
2022/09/16 03:39:59;;;;;;;1999.90;999.90;;;14.60;99.90;;;;;;5010638;28;20022;-78
2022/09/16 03:42:25;;;;;;;1999.90;999.90;;;14.50;99.90;;;;;;5013465;28;20495;-78
2022/09/16 03:44:50;;;;;;;1999.90;999.90;;;14.50;99.90;;;;;;5013593;28;20101;-78
2022/09/16 03:47:16;;;;;;;1999.90;999.90;;;14.40;99.90;;;;;;5013041;28;20460;-78
2022/09/16 03:49:42;;;;;;;1999.90;999.90;;;14.40;99.90;;;;;;5052850;28;20465;-71
2022/09/16 03:52:08;;;;;;;1999.90;999.90;;;14.40;99.90;;;;;;5040519;28;20029;-78
2022/09/16 03:54:36;;;;;;;1999.90;999.90;;;14.40;99.90;;;;;;5035198;28;20045;-78
2022/09/16 03:57:02;;;;;;;1999.90;999.90;;;14.40;99.90;;;;;;5035307;28;20065;-78
2022/09/16 03:59:28;;;;;;;1999.90;999.90;;;14.30;99.90;;;;;;5035195;28;20139;-78
2022/09/16 04:01:54;;;;;;;1999.90;999.90;;;14.30;99.90;;;;;;5035042;28;20101;-78
2022/09/16 04:04:19;;;;;;;1999.90;999.90;;;14.30;99.90;;;;;;5035031;28;20431;-78
2022/09/16 04:06:45;;;;;;;1999.90;999.90;;;14.30;99.90;;;;;;5034993;28;20044;-78
2022/09/16 04:09:11;;;;;;;1999.90;999.90;;;14.30;99.90;;;;;;5035257;28;20022;-78
2022/09/16 04:11:38;;;;;;;1999.90;999.90;;;14.20;99.90;;;;;;5034860;28;20044;-78
2022/09/16 04:14:04;;;;;;;1999.90;999.90;;;14.20;99.90;;;;;;5034032;28;20021;-72
2022/09/16 04:16:30;;;;;;;1999.90;999.90;;;14.10;99.90;;;;;;5045734;28;20511;-72
2022/09/16 04:18:56;;;;;;;1999.90;999.90;;;14.10;99.90;;;;;;5053971;28;20021;-78
2022/09/16 04:21:22;;;;;;;1999.90;999.90;;;14.10;99.90;;;;;;5054123;28;20032;-78
2022/09/16 04:23:48;;;;;;;1999.90;999.90;;;14.10;99.90;;;;;;5054581;28;20443;-78
2022/09/16 04:26:15;;;;;;;1999.90;999.90;;;14.00;99.90;;;;;;5054528;28;20143;-71
2022/09/16 04:28:41;;;;;;;1999.90;999.90;;;14.00;99.90;;;;;;5048241;28;20144;-71
2022/09/16 04:31:10;;;;;;;1999.90;999.90;;;14.00;99.90;;;;;;5034225;28;20064;-79
2022/09/16 04:33:36;;;;;;;1999.90;999.90;;;13.90;99.90;;;;;;5034729;28;20032;-78
2022/09/16 04:36:09;;;;;;;1999.90;999.90;;;13.90;99.90;;;;;;5034103;28;20037;-72
2022/09/16 04:38:35;;;;;;;1999.90;999.90;;;13.90;99.90;;;;;;5039967;28;20032;-75
2022/09/16 04:41:22;;;;;;;1999.90;999.90;;;13.90;99.90;;;;;;5054235;28;20083;-72
2022/09/16 04:43:52;;;;;;;1999.90;999.90;;;13.80;99.90;;;;;;5054598;28;20051;-78
2022/09/16 04:46:18;;;;;;;1999.90;999.90;;;13.80;99.90;;;;;;5053258;28;20037;-78
2022/09/16 04:48:51;;;;;;;1999.90;999.90;;;13.70;99.90;;;;;;5054229;28;20028;-78
2022/09/16 04:51:18;;;;;;;;;;;13.70;99.90;;;;;;5054802;28;20033;-71
2022/09/16 04:53:45;;;;;;;1999.90;999.90;;;13.70;99.90;;;;;;5054272;28;19945;-71
2022/09/16 04:56:14;;;;;;;1999.90;999.90;;;13.70;99.90;;;;;;5054038;28;20017;-78
2022/09/16 04:58:43;;;;;;;1999.90;999.90;;;13.60;99.90;;;;;;5053933;28;20062;-78
2022/09/16 05:01:11;;;;;;;1999.90;999.90;;;13.60;99.90;;;;;;5053706;28;20511;-78
2022/09/16 05:03:39;;;;;;;1999.90;999.90;;;13.50;99.90;;;;;;5054203;28;20025;-78
2022/09/16 05:06:06;;;;;;;1999.90;999.90;;;13.50;99.90;;;;;;5053759;28;20388;-71
2022/09/16 05:08:34;;;;;;;1999.90;999.90;;;13.50;99.90;;;;;;5053973;28;20067;-78
2022/09/16 05:11:05;;;;;;;1999.90;999.90;;;13.50;99.90;;;;;;5053760;28;20171;-71
2022/09/16 05:13:30;;;;;;;1999.90;999.90;;;13.40;99.90;;;;;;5053786;28;20085;-78
2022/09/16 05:16:00;;;;;;;1999.90;999.90;;;13.40;99.90;;;;;;5053239;28;20025;-78
2022/09/16 05:18:26;;;;;;;1999.90;999.90;;;13.40;99.90;;;;;;5053573;28;20519;-72
2022/09/16 05:20:57;;;;;;;1999.90;999.90;;;13.30;99.90;;;;;;5053152;28;20021;-71
2022/09/16 05:23:23;;;;;;;1999.90;999.90;;;13.30;99.90;;;;;;5052173;28;20112;-78
2022/09/16 05:25:48;;;;;;;1999.90;999.90;;;13.30;99.90;;;;;;5053634;28;20104;-78
2022/09/16 05:28:14;;;;;;;1999.90;999.90;;;13.20;99.90;;;;;;5051383;28;20098;-78
2022/09/16 05:30:39;;;;;;;1999.90;999.90;;;13.20;99.90;;;;;;5033248;28;20061;-71
2022/09/16 05:33:05;;;;;;;1999.90;999.90;;;13.20;99.90;;;;;;5033233;28;20114;-78
2022/09/16 05:35:30;;;;;;;1999.90;999.90;;;13.20;99.90;;;;;;5033028;28;20034;-78
2022/09/16 05:37:56;;;;;;;1999.90;999.90;;;13.20;99.90;;;;;;5033457;28;20021;-78
2022/09/16 05:40:22;;;;;;;1999.90;999.90;;;13.10;99.90;;;;;;5053029;28;20107;-78
2022/09/16 05:42:50;;;;;;;1999.90;999.90;;;13.10;99.90;;;;;;5053138;28;20039;-78
2022/09/16 05:45:16;;;;;;;1999.90;999.90;;;13.10;99.90;;;;;;5052313;28;20507;-72
2022/09/16 05:47:49;;;;;;;1999.90;999.90;;;13.00;99.90;;;;;;5050208;28;20512;-78
2022/09/16 05:50:15;;;;;;;1999.90;999.90;;;13.00;99.90;;;;;;5050832;28;20028;-78
2022/09/16 05:52:40;;;;;;;1999.90;999.90;;;13.00;99.90;;;;;;5052701;28;20377;-78
2022/09/16 05:55:07;;;;;;;1999.90;999.90;;;12.90;99.90;;;;;;5052485;28;20047;-78
2022/09/16 05:57:33;;;;;;;1999.90;999.90;;;12.90;99.90;;;;;;5052259;28;20511;-71
2022/09/16 05:59:58;;;;;;;1999.90;999.90;;;12.90;99.90;;;;;;5049972;28;20025;-71
2022/09/16 06:02:24;;;;;;;1999.90;999.90;;;12.90;99.90;;;;;;5048201;28;20082;-72
2022/09/16 06:04:50;;;;;;;1999.90;999.90;;;12.90;99.90;;;;;;5052216;28;20032;-78
2022/09/16 06:07:16;;;;;;;1999.90;999.90;;;12.90;99.90;;;;;;5042746;28;20439;-71
2022/09/16 06:09:42;;;;;;;1999.90;999.90;;;12.90;99.90;;;;;;5049766;28;20380;-71
2022/09/16 06:12:08;;;;;;;1999.90;999.90;;;12.90;99.90;;;;;;5048869;28;20103;-71
2022/09/16 06:14:34;;;;;;;1999.90;999.90;;;13.00;99.90;;;;;;5049212;28;20021;-71
2022/09/16 06:17:00;;;;;;;1999.90;999.90;;;13.00;99.90;;;;;;5049999;28;20032;-78
2022/09/16 06:19:26;;;;;;;1999.90;999.90;;;13.00;99.90;;;;;;5043579;28;20497;-71
2022/09/16 06:21:52;;;;;;;1999.90;999.90;;;13.00;99.90;;;;;;5039062;28;20110;-71
2022/09/16 06:24:19;;;;;;;1999.90;999.90;;;13.10;99.90;;;;;;5046131;28;20053;-71
2022/09/16 06:26:46;;;;;;;1999.90;999.90;;;13.10;99.90;;;;;;5052080;28;20021;-78
2022/09/16 06:29:13;;;;;;;1999.90;999.90;;;13.20;99.90;;;;;;5042488;28;20385;-71
2022/09/16 06:31:39;;;;;;;1999.90;999.90;;;13.30;99.90;;;;;;5042960;28;20124;-78
2022/09/16 06:34:06;;;;;;;1999.90;999.90;;;13.30;99.90;;;;;;5049539;28;20527;-78
2022/09/16 06:36:35;;;;;;;1999.90;999.90;;;13.30;99.90;;;;;;5049912;28;20036;-78
2022/09/16 06:39:01;;;;;;;1999.90;999.90;;;13.30;99.90;;;;;;5051311;28;20017;-71
2022/09/16 06:41:27;;;;;;;1999.90;999.90;;;13.40;99.90;;;;;;5050926;28;20029;-78
2022/09/16 06:43:53;;;;;;;1999.90;999.90;;;13.50;99.90;;;;;;5051565;28;20025;-78
2022/09/16 06:46:23;;;;;;;1999.90;999.90;;;13.70;99.90;;;;;;5051956;28;20059;-72
2022/09/16 06:48:51;;;;;;;1999.90;999.90;;;13.80;99.90;;;;;;5051455;28;20040;-72
2022/09/16 06:51:28;;;;;;;1999.90;999.90;;;14.00;99.90;;;;;;5050391;28;20067;-71
2022/09/16 06:53:58;;;;;;;1999.90;999.90;;;14.10;99.90;;;;;;5031961;28;20025;-79
2022/09/16 06:56:24;;;;;;;1999.90;999.90;;;14.30;99.90;;;;;;5030322;28;20393;-78
2022/09/16 06:58:54;;;;;;;1999.90;999.90;;;14.40;99.90;;;;;;5031332;28;20036;-71
2022/09/16 07:01:23;;;;;;;1999.90;999.90;;;14.50;99.90;;;;;;5041100;28;20020;-78
2022/09/16 07:03:50;;;;;;;1999.90;999.90;;;14.60;99.90;;;;;;5050317;28;20021;-72
2022/09/16 07:06:18;;;;;;;1999.90;999.90;;;14.70;99.90;;;;;;5050662;28;20028;-78
2022/09/16 07:08:44;;;;;;;1999.90;999.90;;;14.70;99.90;;;;;;5050723;28;20037;-78
2022/09/16 07:11:11;;;;;;;1999.90;999.90;;;14.80;99.90;;;;;;5054687;28;20036;-79
2022/09/16 07:13:37;;;;;;;1999.90;999.90;;;14.80;99.90;;;;;;5055372;28;20033;-78
2022/09/16 07:16:06;;;;;;;1999.90;999.90;;;14.80;99.90;;;;;;5054872;28;20090;-78
2022/09/16 07:18:32;;;;;;;1999.90;999.90;;;14.70;99.90;;;;;;5054772;28;20033;-79
2022/09/16 07:21:06;;;;;;;1999.90;999.90;;;14.90;99.90;;;;;;5054704;28;20103;-78
2022/09/16 07:23:34;;;;;;;1999.90;999.90;;;15.00;99.90;;;;;;5043716;28;20025;-72
2022/09/16 07:26:05;;;;;;;1999.90;999.90;;;15.10;99.90;;;;;;5047041;28;20059;-78
2022/09/16 07:28:32;;;;;;;1999.90;999.90;;;15.20;99.90;;;;;;5035765;28;20155;-73
2022/09/16 07:31:01;;;;;;;1999.90;999.90;;;15.30;99.90;;;;;;5051921;28;20036;-78
2022/09/16 07:33:28;;;;;;;1999.90;999.90;;;15.30;99.90;;;;;;5054200;28;20047;-71
2022/09/16 07:35:58;;;;;;;1999.90;999.90;;;15.30;99.90;;;;;;5050239;28;20056;-78
2022/09/16 07:38:24;;;;;;;1999.90;999.90;;;15.30;99.90;;;;;;5050837;28;20017;-78
2022/09/16 07:40:49;;;;;;;1999.90;999.90;;;15.40;99.90;;;;;;5041350;28;20079;-71
2022/09/16 07:43:15;;;;;;;1999.90;999.90;;;15.60;99.90;;;;;;5054566;28;20017;-72
2022/09/16 07:45:41;;;;;;;1999.90;999.90;;;15.60;99.90;;;;;;5054389;28;20033;-82
2022/09/16 07:48:06;;;;;;;1999.90;999.90;;;15.60;99.90;;;;;;5054280;28;20388;-80
2022/09/16 07:50:32;;;;;;;1999.90;999.90;;;16.00;99.90;;;;;;5053957;28;20033;-80
2022/09/16 07:52:57;;;;;;;1999.90;999.90;;;17.60;99.90;;;;;;5054320;28;20092;-72
2022/09/16 07:55:23;;;;;;;1999.90;999.90;;;19.80;99.90;;;;;;5052712;28;20071;-78
2022/09/16 07:57:48;;;;;;;1999.90;999.90;;;21.40;99.90;;;;;;5051161;28;20059;-72
2022/09/16 08:00:15;;;;;;;1999.90;999.90;;;22.90;99.00;;;;;;5045640;28;20482;-78
2022/09/16 08:02:41;;;;;;;1999.90;999.90;;;23.90;97.70;;;;;;5052945;28;20087;-72
2022/09/16 08:05:08;;;;;;;1999.90;999.90;;;24.10;96.00;;;;;;5052793;28;20484;-77
2022/09/16 08:07:33;;;;;;;1999.90;999.90;;;23.20;95.70;;;;;;5054438;28;20047;-72
2022/09/16 08:09:59;;;;;;;1999.90;999.90;;;23.20;96.30;;;;;;5054008;28;20076;-72
2022/09/16 08:12:24;;;;;;;1999.90;999.90;;;23.10;95.90;;;;;;5053547;28;20028;-80
2022/09/16 08:14:50;;;;;;;1999.90;999.90;;;22.40;96.30;;;;;;5054410;28;20446;-79
2022/09/16 08:17:16;;;;;;;1999.90;999.90;;;21.60;97.40;;;;;;5052105;28;20043;-79
2022/09/16 08:19:41;;;;;;;1999.90;999.90;;;22.00;97.40;;;;;;5053703;28;20021;-82
2022/09/16 08:22:07;;;;;;;1999.90;999.90;;;22.70;96.70;;;;;;5053018;28;20028;-74
2022/09/16 08:24:32;;;;;;;1999.90;999.90;;;22.70;96.10;;;;;;5052459;28;20032;-73
2022/09/16 08:26:58;;;;;;;1999.90;999.90;;;22.10;96.80;;;;;;5053788;28;20036;-80
2022/09/16 08:29:24;;;;;;;1999.90;999.90;;;21.40;97.70;;;;;;5051120;28;20132;-80
2022/09/16 08:31:50;;;;;;;1999.90;999.90;;;21.30;98.30;;;;;;5053913;28;20025;-73
2022/09/16 08:34:16;;;;;;;1999.90;999.90;;;22.90;96.70;;;;;;5053831;28;20033;-80
2022/09/16 08:36:42;;;;;;;1999.90;999.90;;;23.10;95.40;;;;;;5053070;28;20029;-81
2022/09/16 08:39:09;;;;;;;1999.90;999.90;;;24.50;95.10;;;;;;5053043;28;20029;-78
2022/09/16 08:41:54;;;;;;;1999.90;999.90;;;24.90;93.50;;;;;;5053911;28;20104;-79
2022/09/16 08:44:49;;;;;;;1999.90;999.90;;;24.30;93.80;;;;;;5053589;28;20032;-78
2022/09/16 08:47:27;;;;;;;1999.90;999.90;;;23.80;94.20;;;;;;5053742;28;20021;-79
2022/09/16 08:49:54;;;;;;;1999.90;999.90;;;24.80;93.60;;;;;;5053835;28;20060;-78
2022/09/16 08:52:28;;;;;;;1999.90;999.90;;;26.20;92.80;;;;;;5052009;28;20373;-79
2022/09/16 08:55:09;;;;;;;1999.90;999.90;;;26.70;92.10;;;;;;5052224;28;20025;-79
2022/09/16 08:57:40;;;;;;;1999.90;999.90;;;27.40;91.50;;;;;;5052482;28;20028;-72
2022/09/16 09:00:16;;;;;;;1999.90;999.90;;;28.20;90.50;;;;;;5052764;28;20027;-72
2022/09/16 09:02:41;;;;;;;1999.90;999.90;;;29.10;88.90;;;;;;5051264;28;20036;-78
2022/09/16 09:05:33;;;;;;;1999.90;999.90;;;28.80;89.00;;;;;;5048830;28;20034;-79
2022/09/16 09:08:18;;;;;;;1999.90;999.90;;;27.80;90.00;;;;;;5056979;28;20465;-79
2022/09/16 09:10:46;;;;;;;1999.90;999.90;;;27.60;88.90;;;;;;5052659;28;20025;-77
2022/09/16 09:13:15;;;;;;;1999.90;999.90;;;27.70;89.20;;;;;;5053087;28;20032;-78
2022/09/16 09:15:57;;;;;;;1999.90;999.90;;;27.50;89.10;;;;;;5055995;28;20108;-76
2022/09/16 09:18:26;;;;;;;1999.90;999.90;;;28.00;88.70;;;;;;5046109;28;20013;-77
2022/09/16 09:21:43;;;;;;;1999.90;999.90;;;29.30;89.20;;;;;;5051621;28;20029;-76
2022/09/16 09:24:23;;;;;;;1999.90;999.90;;;29.40;87.90;;;;;;5040759;28;20029;-76
2022/09/16 09:26:51;;;;;;;1999.90;999.90;;;29.20;86.10;;;;;;5048449;28;20126;-72
2022/09/16 09:29:28;;;;;;;1999.90;999.90;;;28.40;86.60;;;;;;5046449;28;20080;-76
2022/09/16 09:32:17;;;;;;;1999.90;999.90;;;26.60;88.80;;;;;;5062660;28;20116;-74
2022/09/16 09:34:51;;;;;;;1999.90;999.90;;;25.50;91.10;;;;;;5035694;28;20033;-78
2022/09/16 09:37:35;;;;;;;1999.90;999.90;;;24.90;91.20;;;;;;5044241;28;20081;-78
2022/09/16 09:40:14;;;;;;;1999.90;999.90;;;24.40;91.80;;;;;;5049583;28;20040;-74
2022/09/16 09:42:51;;;;;;;1999.90;999.90;;;24.10;91.90;;;;;;5052484;28;20017;-74
2022/09/16 09:45:32;;;;;;;1999.90;999.90;;;24.00;92.10;;;;;;5060625;28;20029;-78
2022/09/16 09:48:32;;;;;;;1999.90;999.90;;;23.90;91.90;;;;;;5056556;28;20021;-78
2022/09/16 09:51:04;;;;;;;1999.90;999.90;;;23.00;91.90;;;;;;5061700;28;20084;-73
2022/09/16 09:53:40;;;;;;;1999.90;999.90;;;23.10;92.40;;;;;;5053563;28;20025;-74
2022/09/16 09:56:32;;;;;;;1999.90;999.90;;;23.90;91.50;;;;;;5056393;28;20055;-79
2022/09/16 09:59:22;;;;;;;1999.90;999.90;;;23.70;91.50;;;;;;5043547;28;20036;-74
2022/09/16 10:01:53;;;;;;;1999.90;999.90;;;23.90;91.50;;;;;;5049178;28;20100;-79
2022/09/16 10:04:19;;;;;;;1999.90;999.90;;;23.80;92.00;;;;;;5051950;28;20017;-74
2022/09/16 10:06:47;;;;;;;1999.90;999.90;;;23.90;91.20;;;;;;5051975;28;20029;-74
2022/09/16 10:09:15;;;;;;;1999.90;999.90;;;23.90;90.90;;;;;;5051375;28;20047;-74
2022/09/16 10:11:50;;;;;;;1999.90;999.90;;;23.50;91.80;;;;;;5050793;28;20542;-74
2022/09/16 10:14:31;;;;;;;1999.90;999.90;;;23.10;91.90;;;;;;5050338;28;20326;-74
2022/09/16 10:17:04;;;;;;;1999.90;999.90;;;23.10;92.20;;;;;;5048406;28;20039;-74
2022/09/16 10:19:36;;;;;;;1999.90;999.90;;;22.40;92.80;;;;;;5036371;28;20435;-74
2022/09/16 10:22:28;;;;;;;1999.90;999.90;;;22.70;93.20;;;;;;5031725;28;20108;-78
2022/09/16 10:25:05;;;;;;;1999.90;999.90;;;22.90;93.00;;;;;;5031452;28;20013;-79
2022/09/16 10:27:36;;;;;;;1999.90;999.90;;;22.70;92.70;;;;;;5047775;28;20111;-78
2022/09/16 10:30:15;;;;;;;1999.90;999.90;;;22.60;93.70;;;;;;5051149;28;20088;-74
2022/09/16 10:32:59;;;;;;;1999.90;999.90;;;22.20;93.00;;;;;;5045880;28;20033;-78
2022/09/16 10:35:33;;;;;;;1999.90;999.90;;;22.00;94.30;;;;;;5043356;28;20045;-78
2022/09/16 10:38:03;;;;;;;1999.90;999.90;;;22.10;93.40;;;;;;5050811;28;20052;-74
2022/09/16 10:40:30;;;;;;;1999.90;999.90;;;22.10;93.70;;;;;;5051341;28;20017;-78
2022/09/16 10:43:05;;;;;;;1999.90;999.90;;;22.40;93.50;;;;;;5049862;28;20016;-74
2022/09/16 10:45:36;;;;;;;1999.90;999.90;;;22.60;93.20;;;;;;5050292;28;20040;-76
2022/09/16 10:48:10;;;;;;;1999.90;999.90;;;22.90;92.80;;;;;;5048572;28;20111;-78
2022/09/16 10:50:36;;;;;;;1999.90;999.90;;;22.90;92.60;;;;;;5044271;28;20067;-78
2022/09/16 10:53:01;;;;;;;1999.90;999.90;;;22.70;92.50;;;;;;5043872;28;20497;-78
2022/09/16 10:55:37;;;;;;;1999.90;999.90;;;22.60;92.20;;;;;;5040955;28;20041;-78
2022/09/16 10:58:18;;;;;;;1999.90;999.90;;;22.80;93.10;;;;;;5037081;28;20021;-74
2022/09/16 11:01:03;;;;;;;1999.90;999.90;;;22.70;92.20;;;;;;5043083;28;20560;-77
2022/09/16 11:03:48;;;;;;;1999.90;999.90;;;22.70;93.40;;;;;;5034624;28;20040;-78
2022/09/16 11:06:35;;;;;;;1999.90;999.90;;;22.50;92.70;;;;;;5051438;28;20033;-78
2022/09/16 11:09:13;;;;;;;1999.90;999.90;;;22.40;93.50;;;;;;5031733;28;20079;-74
2022/09/16 11:11:48;;;;;;;1999.90;999.90;;;22.20;94.00;;;;;;5043866;28;20028;-78
2022/09/16 11:14:38;;;;;;;1999.90;999.90;;;22.40;94.00;;;;;;5051030;28;20025;-78
2022/09/16 11:17:41;;;;;;;1999.90;999.90;;;22.90;93.80;;;;;;5047009;28;20559;-79
2022/09/16 11:20:28;;;;;;;1999.90;999.90;;;22.60;93.10;;;;;;5040213;28;20032;-78
2022/09/16 11:23:14;;;;;;;1999.90;999.90;;;22.40;93.60;;;;;;5046014;28;20071;-74
2022/09/16 11:25:40;;;;;;;1999.90;999.90;;;22.40;93.60;;;;;;5044609;28;20127;-79
2022/09/16 11:28:50;;;;;;;1999.90;999.90;;;22.70;94.10;;;;;;5044348;28;20108;-79
2022/09/16 11:31:34;;;;;;;1999.90;999.90;;;23.40;93.10;;;;;;5044534;28;20051;-78
2022/09/16 11:34:27;;;;;;;1999.90;999.90;;;23.10;93.60;;;;;;5042556;28;20025;-74
2022/09/16 11:37:26;;;;;;;1999.90;999.90;;;22.50;94.00;;;;;;5043453;28;20044;-79
2022/09/16 11:39:57;;;;;;;1999.90;999.90;;;22.50;93.60;;;;;;5044882;28;20025;-79
2022/09/16 11:43:00;;;;;;;1999.90;999.90;;;22.10;94.20;;;;;;5044607;28;20025;-78
2022/09/16 11:45:42;;;;;;;1999.90;999.90;;;22.10;94.20;;;;;;5042172;28;20032;-78
2022/09/16 11:48:45;;;;;;;1999.90;999.90;;;22.60;94.60;;;;;;5038666;28;20598;-75
2022/09/16 11:51:42;;;;;;;1999.90;999.90;;;23.20;93.60;;;;;;5032892;28;20045;-73
2022/09/16 11:54:28;;;;;;;1999.90;999.90;;;23.60;93.00;;;;;;5046605;28;20496;-78
2022/09/16 11:57:09;;;;;;;1999.90;999.90;;;23.40;93.20;;;;;;5049145;28;20392;-78
2022/09/16 11:59:50;;;;;;;1999.90;999.90;;;23.00;93.40;;;;;;5041933;28;20037;-78
2022/09/16 12:02:45;;;;;;;1999.90;999.90;;;23.10;94.20;;;;;;5034120;28;20552;-78
2022/09/16 12:05:37;;;;;;;1999.90;999.90;;;23.40;94.00;;;;;;5046388;28;20095;-78
2022/09/16 12:08:21;;;;;;;1999.90;999.90;;;23.50;93.50;;;;;;5038476;28;20028;-78
2022/09/16 12:11:18;;;;;;;1999.90;999.90;;;23.70;92.80;;;;;;5054283;28;20035;-78
2022/09/16 12:13:56;;;;;;;1999.90;999.90;;;23.90;92.70;;;;;;5048823;28;20045;-78
2022/09/16 12:17:22;;;;;;;1999.90;999.90;;;23.70;92.90;;;;;;5051981;28;20028;-74
2022/09/16 12:19:54;;;;;;;1999.90;999.90;;;23.40;93.30;;;;;;4979122;28;20039;-78
2022/09/16 12:22:30;;;;;;;1999.90;999.90;;;22.50;95.30;;;;;;4975781;28;20880;-78
2022/09/16 12:25:08;;;;;;;1999.90;999.90;;;22.30;95.50;;;;;;4979151;28;20852;-79
2022/09/16 12:27:48;;;;;;;1999.90;999.90;;;22.40;95.70;;;;;;4985742;28;20085;-74
2022/09/16 12:30:26;;;;;;;1999.90;999.90;;;22.70;95.50;;;;;;4988133;28;20089;-74